Manitowish Waters, WI (54545)

8:15 AM CST on February 09, 2016 (GMT -0600)
Spider Lake Channel | | Change Station
CLOSE
Current Station
Personal Weather Station
Location: Manitowish Waters, WI
Elevation: 1621 ft
Nearby Weather Stations
Active Advisory: Winter Weather Advisory Active Notice: Public Information Statement

Elev 1621 ft 46.13 °N, 89.81 °W | Updated 6 seconds ago

Snow
Snow
10.4 °F
Feels Like 10 °F
N
0.0
Wind Variable Wind from NNW
Gusts 0.0 mph

Today
High -- | Low -- °F
--% Chance of Precip.
Yesterday
High -- | Low -- °F
Precip. -- in
Pressure 29.82 in
Visibility 2.5 miles
Clouds Mostly Cloudy 1700 ft
Mostly Cloudy 2200 ft
Overcast 2900 ft
Windchill 10 °F
Dew Point -0 °F
Humidity 61%
Rainfall 0.00 in
Snow Depth Not available.
7:11 AM 5:15 PM
New Moon, 1% visible
METAR KD25 091355Z AUTO 36007KT 2 1/2SM -SN BKN017 BKN022 OVC029 M13/M15 A2982 RMK AO2 T11271152
Pressure 29.82 in
Visibility 2.5 miles
Clouds Mostly Cloudy 1700 ft
Mostly Cloudy 2200 ft
Overcast 2900 ft
Windchill 10 °F
Dew Point -0 °F
Humidity 61%
Rainfall 0.00 in
Snow Depth Not available.
7:11 AM 5:15 PM
New Moon, 1% visible
METAR KD25 091355Z AUTO 36007KT 2 1/2SM -SN BKN017 BKN022 OVC029 M13/M15 A2982 RMK AO2 T11271152

10-Day Weather Forecast

Almanac

Astronomy

Feb. 09, 2016 Rise Set
Actual Time
Civil Twilight
Nautical Twilight
Astronomical Twilight
Moon
Length of Visible Light
Length of Day
Tomorrow will be .
, % of the Moon is Illuminated

Today's Extremes

State Highs State Lows

Community

WunderPhotos

Upload Photos

1,891,598 photos uploaded!

WunderBlog® & News

Nearby

Air Quality

  Air Quality AQ Index Pollutant
Not available.

Snow Depth

Station Depth Elevation

Earthquake Activity

City Distance Mag. Time & Date
Minimum magnitude displayed is 2.5.

Coastal Water Temperatures

Place Temperature

Stations

Nearby Weather Stations

Station Location Temp. Windchill Dew Point Humidity Wind Precip. Elev Updated Type
                   

Watches & Warnings

Winter Weather Advisory
Issued: 4:19 AM CST Feb. 9, 2016 – National Weather Service

... Winter Weather Advisory remains in effect until 3 PM CST this
afternoon...

* snow showers will continue today. The snow showers should be
most intense in far northwest Vilas County.

* An additional accumulation of 2 to 4 inches can be expected by
late afternoon... with the highest amounts in far northwest Vilas
County.

* Reduced visibilities and slippery roads will result in hazardous
travel conditions.

Precautionary/preparedness actions...

A Winter Weather Advisory for snow means periods of snow will
cause primarily travel difficulties. Be prepared for snow covered
roads and limited visibilities... and use extra caution while
driving. The latest Wisconsin Road conditions can be obtained by
calling 511.

Tsk